createdAt,value
2024-02-05T00:00:46.399Z,100721.75
2024-02-05T00:03:14.980Z,100736.41
2024-02-05T00:05:43.564Z,100733.03
2024-02-05T00:08:12.022Z,100736.78
2024-02-05T00:10:41.674Z,100732.38
2024-02-05T00:13:10.093Z,100738.84
2024-02-05T00:15:38.242Z,100733.03
2024-02-05T00:18:07.100Z,100725.88
2024-02-05T00:20:36.050Z,100721.28
2024-02-05T00:23:04.629Z,100723.34
2024-02-05T00:25:33.480Z,100726.25
2024-02-05T00:28:02.855Z,100730.38
2024-02-05T00:30:31.065Z,100730.88
2024-02-05T00:32:59.144Z,100726.72
2024-02-05T00:35:27.474Z,100733.84
2024-02-05T00:37:56.073Z,100735.47
2024-02-05T00:40:24.257Z,100737.81
2024-02-05T00:42:52.370Z,100730.88
2024-02-05T00:45:22.374Z,100732.38
2024-02-05T00:47:51.599Z,100731.34
2024-02-05T00:50:20.352Z,100732.66
2024-02-05T00:52:48.327Z,100724.84
2024-02-05T00:55:16.713Z,100738.66
2024-02-05T00:57:45.482Z,100729.16
2024-02-05T01:00:15.600Z,100721.53
2024-02-05T01:02:45.434Z,100724.56
2024-02-05T01:05:13.723Z,100742.13
2024-02-05T01:07:43.310Z,100723.91
2024-02-05T01:10:12.485Z,100732.25
2024-02-05T01:12:40.822Z,100734.59
2024-02-05T01:15:09.712Z,100729.81
2024-02-05T01:17:39.098Z,100716.09
2024-02-05T01:20:12.038Z,100723.91
2024-02-05T01:22:40.881Z,100734.44
2024-02-05T01:25:09.979Z,100731.41
2024-02-05T01:27:38.340Z,100742.13
2024-02-05T01:30:07.090Z,100722.47
2024-02-05T01:32:35.488Z,100746.38
2024-02-05T01:35:04.965Z,100752.81
2024-02-05T01:37:34.273Z,100746.72
2024-02-05T01:40:02.243Z,100745.03
2024-02-05T01:42:30.521Z,100752.19
2024-02-05T01:44:58.670Z,100747.75
2024-02-05T01:47:27.067Z,100739.94
2024-02-05T01:49:55.138Z,100733.38
2024-02-05T01:52:23.175Z,100723.22
2024-02-05T01:54:53.417Z,100743.72
2024-02-05T01:57:21.570Z,100739.31
2024-02-05T01:59:49.554Z,100737.06
2024-02-05T02:02:17.931Z,100739.09
2024-02-05T02:04:45.872Z,100739.56
2024-02-05T02:07:16.069Z,100742.97
2024-02-05T02:09:45.420Z,100748.47
2024-02-05T02:12:14.897Z,100743.03
2024-02-05T02:14:42.798Z,100733.00
2024-02-05T02:17:11.213Z,100739.31
2024-02-05T02:19:44.975Z,100733.06
2024-02-05T02:22:21.379Z,100727.63
2024-02-05T02:24:51.155Z,100729.50
2024-02-05T02:27:19.024Z,100727.47
2024-02-05T02:29:47.609Z,100726.09
2024-02-05T02:32:21.813Z,100713.06
2024-02-05T02:34:52.707Z,100726.78
2024-02-05T02:37:24.298Z,100729.97
2024-02-05T02:39:58.133Z,100733.19
2024-02-05T02:42:27.501Z,100716.72
2024-02-05T02:44:56.992Z,100726.41
2024-02-05T02:47:25.421Z,100728.28
2024-02-05T02:49:53.392Z,100733.91
2024-02-05T02:52:21.380Z,100728.09
2024-02-05T02:54:49.435Z,100735.22
2024-02-05T02:57:18.871Z,100737.31
2024-02-05T02:59:46.728Z,100739.00
2024-02-05T03:02:14.598Z,100734.69
2024-02-05T03:04:42.397Z,100737.31
2024-02-05T03:07:10.364Z,100732.34
2024-02-05T03:09:38.316Z,100734.50
2024-02-05T03:12:06.804Z,100737.53
2024-02-05T03:14:36.607Z,100740.63
2024-02-05T03:17:05.370Z,100742.59
2024-02-05T03:19:34.831Z,100740.56
2024-02-05T03:22:03.047Z,100743.81
2024-02-05T03:24:31.128Z,100742.22
2024-02-05T03:26:59.161Z,100738.09
2024-02-05T03:29:27.118Z,100737.72
2024-02-05T03:31:56.660Z,100732.28
2024-02-05T03:34:24.733Z,100744.50
2024-02-05T03:36:53.001Z,100742.44
2024-02-05T03:39:20.904Z,100748.25
2024-02-05T03:41:48.761Z,100747.59
2024-02-05T03:44:16.725Z,100754.81
2024-02-05T03:46:44.711Z,100744.28
2024-02-05T03:49:14.116Z,100749.38
2024-02-05T03:51:42.058Z,100743.19
2024-02-05T03:54:10.047Z,100744.28
2024-02-05T03:56:40.215Z,100753.78
2024-02-05T03:59:08.827Z,100757.63
2024-02-05T04:01:36.755Z,100740.81
2024-02-05T04:04:05.360Z,100759.53
2024-02-05T04:06:35.763Z,100761.41
2024-02-05T04:09:03.851Z,100767.91
2024-02-05T04:11:31.845Z,100753.13
2024-02-05T04:13:59.737Z,100754.81
2024-02-05T04:16:28.207Z,100754.81
2024-02-05T04:18:56.444Z,100733.03
2024-02-05T04:21:25.370Z,100757.84
2024-02-05T04:23:54.877Z,100746.94
2024-02-05T04:26:23.502Z,100768.38
2024-02-05T04:28:51.421Z,100756.13
2024-02-05T04:31:20.127Z,100762.25
2024-02-05T04:33:49.924Z,100762.91
2024-02-05T04:36:18.017Z,100768.84
2024-02-05T04:38:46.194Z,100772.47
2024-02-05T04:41:15.743Z,100767.03
2024-02-05T04:43:43.602Z,100762.97
2024-02-05T04:46:13.141Z,100758.22
2024-02-05T04:48:43.400Z,100759.53
2024-02-05T04:51:13.266Z,100767.38
2024-02-05T04:53:41.776Z,100765.34
2024-02-05T04:56:09.908Z,100765.53
2024-02-05T04:58:39.641Z,100774.94
2024-02-05T05:01:11.417Z,100771.16
2024-02-05T05:03:40.966Z,100792.00
2024-02-05T05:06:08.965Z,100783.47
2024-02-05T05:08:37.030Z,100782.06
2024-02-05T05:11:05.288Z,100780.06
2024-02-05T05:13:33.296Z,100775.09
2024-02-05T05:16:03.896Z,100772.84
2024-02-05T05:18:32.178Z,100766.91
2024-02-05T05:21:00.118Z,100768.16
2024-02-05T05:23:27.921Z,100780.53
2024-02-05T05:25:55.884Z,100781.47
2024-02-05T05:28:24.180Z,100770.94
2024-02-05T05:30:52.166Z,100759.00
2024-02-05T05:33:21.693Z,100777.06
2024-02-05T05:35:49.763Z,100762.59
2024-02-05T05:38:18.038Z,100775.19
2024-02-05T05:40:45.933Z,100773.50
2024-02-05T05:43:14.154Z,100778.94
2024-02-05T05:45:42.279Z,100752.91
2024-02-05T05:48:11.378Z,100765.59
2024-02-05T05:50:41.102Z,100770.84
2024-02-05T05:53:09.500Z,100772.59
2024-02-05T05:55:37.451Z,100772.41
2024-02-05T05:58:05.841Z,100771.03
2024-02-05T06:00:33.831Z,100747.25
2024-02-05T06:03:02.249Z,100761.13
2024-02-05T06:05:30.295Z,100751.97
2024-02-05T06:08:00.018Z,100763.88
2024-02-05T06:10:28.081Z,100762.47
2024-02-05T06:12:56.605Z,100781.63
2024-02-05T06:15:24.590Z,100769.41
2024-02-05T06:17:52.814Z,100775.22
2024-02-05T06:20:20.962Z,100779.31
2024-02-05T06:22:49.084Z,100786.94
2024-02-05T06:25:18.528Z,100789.00
2024-02-05T06:27:46.502Z,100786.81
2024-02-05T06:30:15.389Z,100785.25
2024-02-05T06:32:43.627Z,100781.31
2024-02-05T06:35:11.288Z,100796.31
2024-02-05T06:37:39.375Z,100793.94
2024-02-05T06:40:09.492Z,100789.91
2024-02-05T06:42:39.268Z,100790.06
2024-02-05T06:45:09.155Z,100783.78
2024-02-05T06:47:37.364Z,100785.31
2024-02-05T06:50:06.373Z,100800.47
2024-02-05T06:52:34.729Z,100801.31
2024-02-05T06:55:02.773Z,100798.25
2024-02-05T06:57:30.792Z,100797.59
2024-02-05T07:00:00.383Z,100805.28
2024-02-05T07:02:28.244Z,100797.13
2024-02-05T07:04:57.499Z,100788.63
2024-02-05T07:07:28.927Z,100804.06
2024-02-05T07:09:57.741Z,100812.72
2024-02-05T07:12:25.924Z,100813.22
2024-02-05T07:14:54.046Z,100824.63
2024-02-05T07:17:32.458Z,100832.31
2024-02-05T07:20:02.535Z,100825.66
2024-02-05T07:22:33.226Z,100824.94
2024-02-05T07:25:01.247Z,100833.13
2024-02-05T07:27:29.597Z,100818.19
2024-02-05T07:29:57.489Z,100807.28
2024-02-05T07:32:26.718Z,100811.69
2024-02-05T07:34:55.212Z,100837.88
2024-02-05T07:37:24.222Z,100844.00
2024-02-05T07:39:51.525Z,100830.06
2024-02-05T07:42:19.557Z,100841.81
2024-02-05T07:44:47.589Z,100846.13
2024-02-05T07:47:16.252Z,100845.00
2024-02-05T07:49:45.560Z,100853.84
2024-02-05T07:52:13.985Z,100847.94
2024-02-05T07:54:42.127Z,100851.31
2024-02-05T07:57:10.378Z,100857.53
2024-02-05T07:59:38.239Z,100857.91
2024-02-05T08:02:06.504Z,100859.31
2024-02-05T08:04:34.618Z,100853.19
2024-02-05T08:07:05.954Z,100857.63
2024-02-05T08:09:36.217Z,100857.63
2024-02-05T08:12:05.252Z,100860.00
2024-02-05T08:14:33.200Z,100851.31
2024-02-05T08:17:01.094Z,100856.41
2024-02-05T08:19:29.127Z,100876.00
2024-02-05T08:21:57.070Z,100883.50
2024-02-05T08:24:27.456Z,100882.47
2024-02-05T08:26:55.505Z,100875.03
2024-02-05T08:29:24.265Z,100874.78
2024-02-05T08:31:53.587Z,100869.22
2024-02-05T08:34:21.695Z,100872.56
2024-02-05T08:36:50.683Z,100864.03
2024-02-05T08:39:18.675Z,100872.00
2024-02-05T08:41:48.205Z,100866.06
2024-02-05T08:44:16.243Z,100874.44
2024-02-05T08:46:44.320Z,100861.22
2024-02-05T08:49:13.551Z,100881.09
2024-02-05T08:51:41.666Z,100875.50
2024-02-05T08:54:10.464Z,100864.06
2024-02-05T08:56:38.827Z,100871.88
2024-02-05T08:59:08.763Z,100855.06
2024-02-05T09:01:36.995Z,100883.44
2024-02-05T09:04:05.249Z,100882.47
2024-02-05T09:06:33.835Z,100877.69
2024-02-05T09:09:01.689Z,100870.91
2024-02-05T09:11:34.769Z,100871.38
2024-02-05T09:14:04.213Z,100878.72
2024-02-05T09:16:33.601Z,100883.50
2024-02-05T09:19:01.589Z,100881.28
2024-02-05T09:21:29.957Z,100879.41
2024-02-05T09:23:57.904Z,100876.97
2024-02-05T09:26:25.918Z,100888.22
2024-02-05T09:28:54.035Z,100893.00
2024-02-05T09:31:22.059Z,100864.13
2024-02-05T09:33:51.524Z,100897.38
2024-02-05T09:36:19.969Z,100897.38
2024-02-05T09:38:47.891Z,100898.03
2024-02-05T09:41:22.328Z,100890.06
2024-02-05T09:43:51.520Z,100898.75
2024-02-05T09:46:22.461Z,100892.78
2024-02-05T09:48:53.638Z,100895.78
2024-02-05T09:51:24.021Z,100891.25
2024-02-05T09:53:58.279Z,100895.88
2024-02-05T09:56:35.899Z,100893.25
2024-02-05T09:59:04.440Z,100877.31
2024-02-05T10:01:34.541Z,100893.50
2024-02-05T10:04:05.072Z,100879.69
2024-02-05T10:06:35.040Z,100895.16
2024-02-05T10:09:07.550Z,100890.91
2024-02-05T10:11:37.945Z,100894.31
2024-02-05T10:14:06.464Z,100892.22
2024-02-05T10:16:36.363Z,100894.78
2024-02-05T10:19:06.596Z,100884.38
2024-02-05T10:21:35.039Z,100890.19
2024-02-05T10:24:03.464Z,100879.78
2024-02-05T10:26:32.926Z,100879.16
2024-02-05T10:29:08.819Z,100872.03
2024-02-05T10:31:48.774Z,100872.03
2024-02-05T10:34:19.685Z,100875.06
2024-02-05T10:36:47.977Z,100884.97
2024-02-05T10:39:24.038Z,100884.97
2024-02-05T10:41:53.908Z,100880.75
2024-02-05T10:44:32.887Z,100892.56
2024-02-05T10:47:07.797Z,100861.50
2024-02-05T10:49:37.971Z,100873.41
2024-02-05T10:52:09.822Z,100872.03
2024-02-05T10:54:41.219Z,100866.16
2024-02-05T10:57:10.497Z,100852.72
2024-02-05T10:59:38.716Z,100855.25
2024-02-05T11:02:13.656Z,100864.94
2024-02-05T11:04:43.244Z,100865.63
2024-02-05T11:07:16.132Z,100852.53
2024-02-05T11:09:47.356Z,100850.47
2024-02-05T11:12:17.812Z,100859.19
2024-02-05T11:14:48.039Z,100859.50
2024-02-05T11:17:19.488Z,100844.28
2024-02-05T11:19:51.505Z,100860.75
2024-02-05T11:22:22.303Z,100853.59
2024-02-05T11:24:50.408Z,100853.13
2024-02-05T11:27:19.234Z,100836.75
2024-02-05T11:29:47.242Z,100839.22
2024-02-05T11:32:15.848Z,100829.47
2024-02-05T11:34:44.923Z,100823.66
2024-02-05T11:37:20.584Z,100820.19
2024-02-05T11:39:49.020Z,100822.91
2024-02-05T11:42:20.067Z,100817.59
2024-02-05T11:44:48.776Z,100830.66
2024-02-05T11:47:17.017Z,100824.84
2024-02-05T11:49:46.341Z,100814.13
2024-02-05T11:52:16.268Z,100813.38
2024-02-05T11:54:47.104Z,100813.75
2024-02-05T11:57:15.281Z,100801.53
2024-02-05T11:59:43.577Z,100800.38
2024-02-05T12:02:11.894Z,100792.59
2024-02-05T12:04:40.896Z,100797.19
2024-02-05T12:07:09.818Z,100789.31
2024-02-05T12:09:38.522Z,100793.06
2024-02-05T12:12:08.771Z,100775.38
2024-02-05T12:14:37.729Z,100787.78
2024-02-05T12:17:12.821Z,100781.88
2024-02-05T12:19:40.887Z,100784.88
2024-02-05T12:22:09.189Z,100773.78
2024-02-05T12:24:37.390Z,100779.66
2024-02-05T12:27:06.109Z,100785.94
2024-02-05T12:29:35.693Z,100781.03
2024-02-05T12:32:06.090Z,100772.09
2024-02-05T12:34:34.354Z,100777.25
2024-02-05T12:37:02.897Z,100771.72
2024-02-05T12:39:31.032Z,100775.00
2024-02-05T12:42:00.305Z,100767.94
2024-02-05T12:44:37.798Z,100763.16
2024-02-05T12:47:11.499Z,100776.97
2024-02-05T12:49:40.820Z,100775.66
2024-02-05T12:52:08.826Z,100767.78
2024-02-05T12:54:37.523Z,100764.59
2024-02-05T12:57:06.184Z,100752.16
2024-02-05T12:59:34.134Z,100765.22
2024-02-05T13:02:02.438Z,100766.94
2024-02-05T13:04:31.978Z,100769.47
2024-02-05T13:07:06.249Z,100754.69
2024-02-05T13:09:37.305Z,100748.31
2024-02-05T13:12:06.204Z,100756.31
2024-02-05T13:14:34.152Z,100740.41
2024-02-05T13:17:06.513Z,100727.44
2024-02-05T13:19:37.142Z,100729.78
2024-02-05T13:22:06.985Z,100734.69
2024-02-05T13:24:35.326Z,100722.94
2024-02-05T13:27:03.519Z,100722.94
2024-02-05T13:29:31.848Z,100723.31
2024-02-05T13:31:59.843Z,100712.88
2024-02-05T13:34:30.666Z,100713.63
2024-02-05T13:37:00.848Z,100722.72
2024-02-05T13:39:28.904Z,100715.13
2024-02-05T13:41:58.025Z,100698.19
2024-02-05T13:44:26.118Z,100726.03
2024-02-05T13:46:54.889Z,100711.72
2024-02-05T13:49:23.209Z,100735.81
2024-02-05T13:51:51.997Z,100721.59
2024-02-05T13:54:21.732Z,100727.88
2024-02-05T13:56:50.308Z,100726.78
2024-02-05T13:59:18.988Z,100725.31
2024-02-05T14:01:47.310Z,100720.00
2024-02-05T14:04:15.848Z,100739.94
2024-02-05T14:06:44.024Z,100728.19
2024-02-05T14:09:12.844Z,100717.66
2024-02-05T14:11:42.197Z,100729.31
2024-02-05T14:14:10.103Z,100717.28
2024-02-05T14:16:38.304Z,100711.44
2024-02-05T14:19:06.469Z,100721.13
2024-02-05T14:21:35.448Z,100722.72
2024-02-05T14:24:05.070Z,100720.66
2024-02-05T14:26:32.994Z,100711.53
2024-02-05T14:29:02.226Z,100714.63
2024-02-05T14:31:30.452Z,100712.56
2024-02-05T14:33:58.593Z,100715.59
2024-02-05T14:36:26.606Z,100710.84
2024-02-05T14:38:55.131Z,100697.91
2024-02-05T14:41:23.220Z,100709.25
2024-02-05T14:43:51.180Z,100718.59
2024-02-05T14:46:20.361Z,100718.03
2024-02-05T14:48:48.577Z,100694.31
2024-02-05T14:51:16.746Z,100708.25
2024-02-05T14:53:44.748Z,100715.84
2024-02-05T14:56:12.661Z,100704.94
2024-02-05T14:58:40.586Z,100714.25
2024-02-05T15:01:09.040Z,100713.31
2024-02-05T15:03:38.498Z,100714.81
2024-02-05T15:06:07.082Z,100717.06
2024-02-05T15:08:35.610Z,100705.97
2024-02-05T15:11:04.694Z,100702.88
2024-02-05T15:13:32.729Z,100692.44
2024-02-05T15:16:00.817Z,100695.00
2024-02-05T15:18:29.213Z,100696.78
2024-02-05T15:20:58.627Z,100683.78
2024-02-05T15:23:26.682Z,100695.75
2024-02-05T15:25:54.669Z,100699.69
2024-02-05T15:28:22.750Z,100691.25
2024-02-05T15:30:50.628Z,100687.28
2024-02-05T15:33:18.759Z,100687.00
2024-02-05T15:35:47.853Z,100686.25
2024-02-05T15:38:17.261Z,100692.72
2024-02-05T15:40:45.574Z,100702.69
2024-02-05T15:43:14.093Z,100704.28
2024-02-05T15:45:42.185Z,100695.91
2024-02-05T15:48:10.212Z,100699.97
2024-02-05T15:50:38.406Z,100695.06
2024-02-05T15:53:06.726Z,100693.75
2024-02-05T15:55:36.269Z,100684.44
2024-02-05T15:58:08.183Z,100690.75
2024-02-05T16:00:36.460Z,100692.25
2024-02-05T16:03:04.580Z,100678.16
2024-02-05T16:05:33.276Z,100683.59
2024-02-05T16:08:01.929Z,100696.47
2024-02-05T16:10:31.963Z,100696.97
2024-02-05T16:13:01.418Z,100678.06
2024-02-05T16:15:29.393Z,100693.19
2024-02-05T16:17:57.375Z,100689.81
2024-02-05T16:20:26.839Z,100691.09
2024-02-05T16:22:55.009Z,100690.16
2024-02-05T16:25:26.454Z,100695.63
2024-02-05T16:27:55.818Z,100702.00
2024-02-05T16:30:26.884Z,100694.78
2024-02-05T16:32:54.849Z,100709.91
2024-02-05T16:35:22.919Z,100709.59
2024-02-05T16:37:51.551Z,100704.84
2024-02-05T16:40:20.185Z,100713.28
2024-02-05T16:42:48.419Z,100719.03
2024-02-05T16:45:16.585Z,100717.13
2024-02-05T16:47:46.998Z,100705.94
2024-02-05T16:50:15.954Z,100701.34
2024-02-05T16:52:44.867Z,100702.28
2024-02-05T16:55:13.098Z,100690.34
2024-02-05T16:57:41.189Z,100697.09
2024-02-05T17:00:12.423Z,100706.31
2024-02-05T17:02:40.431Z,100704.63
2024-02-05T17:05:10.368Z,100690.81
2024-02-05T17:07:38.533Z,100687.34
2024-02-05T17:10:08.924Z,100681.59
2024-02-05T17:12:37.573Z,100679.59
2024-02-05T17:15:06.197Z,100686.25
2024-02-05T17:17:38.118Z,100682.31
2024-02-05T17:20:07.797Z,100690.38
2024-02-05T17:22:37.453Z,100686.81
2024-02-05T17:25:06.713Z,100691.91
2024-02-05T17:27:34.723Z,100690.47
2024-02-05T17:30:03.054Z,100692.94
2024-02-05T17:32:32.393Z,100685.31
2024-02-05T17:35:01.289Z,100678.72
2024-02-05T17:37:29.516Z,100688.28
2024-02-05T17:39:59.078Z,100677.72
2024-02-05T17:42:28.909Z,100673.84
2024-02-05T17:44:57.166Z,100688.16
2024-02-05T17:47:25.159Z,100672.09
2024-02-05T17:49:53.473Z,100695.78
2024-02-05T17:52:21.611Z,100693.25
2024-02-05T17:54:49.655Z,100708.19
2024-02-05T17:57:19.180Z,100698.50
2024-02-05T17:59:47.204Z,100687.44
2024-02-05T18:02:16.402Z,100703.09
2024-02-05T18:04:44.604Z,100688.00
2024-02-05T18:07:12.957Z,100693.44
2024-02-05T18:09:41.398Z,100696.69
2024-02-05T18:12:09.881Z,100710.63
2024-02-05T18:14:39.283Z,100697.53
2024-02-05T18:17:07.892Z,100704.69
2024-02-05T18:19:37.282Z,100698.25
2024-02-05T18:22:05.820Z,100693.31
2024-02-05T18:24:42.019Z,100707.09
2024-02-05T18:27:18.140Z,100703.41
2024-02-05T18:29:47.703Z,100695.84
2024-02-05T18:32:16.112Z,100694.06
2024-02-05T18:34:47.102Z,100695.38
2024-02-05T18:37:16.130Z,100691.50
2024-02-05T18:39:44.985Z,100692.66
2024-02-05T18:42:13.105Z,100681.34
2024-02-05T18:44:41.519Z,100686.13
2024-02-05T18:47:11.114Z,100694.66
2024-02-05T18:49:39.323Z,100689.22
2024-02-05T18:52:10.104Z,100693.63
2024-02-05T18:54:38.637Z,100690.91
2024-02-05T18:57:08.027Z,100688.50
2024-02-05T18:59:36.511Z,100696.94
2024-02-05T19:02:05.402Z,100702.75
2024-02-05T19:04:35.028Z,100700.22
2024-02-05T19:07:04.898Z,100691.06
2024-02-05T19:09:34.474Z,100687.88
2024-02-05T19:12:03.224Z,100679.69
2024-02-05T19:14:32.232Z,100694.41
2024-02-05T19:17:00.529Z,100680.25
2024-02-05T19:19:29.715Z,100686.53
2024-02-05T19:21:59.940Z,100690.28
2024-02-05T19:24:28.636Z,100673.97
2024-02-05T19:27:00.381Z,100667.94
2024-02-05T19:29:29.812Z,100690.28
2024-02-05T19:31:58.108Z,100661.84
2024-02-05T19:34:27.107Z,100682.00
2024-02-05T19:36:55.616Z,100671.38
2024-02-05T19:39:25.418Z,100682.19
2024-02-05T19:41:53.848Z,100685.09
2024-02-05T19:44:23.066Z,100680.13
2024-02-05T19:46:51.468Z,100694.78
2024-02-05T19:49:20.278Z,100675.28
2024-02-05T19:51:49.001Z,100684.28
2024-02-05T19:54:17.684Z,100685.44
2024-02-05T19:56:47.909Z,100679.88
2024-02-05T19:59:17.086Z,100686.97
2024-02-05T20:01:46.175Z,100674.09
2024-02-05T20:04:14.456Z,100682.13
2024-02-05T20:06:43.640Z,100676.81
2024-02-05T20:09:12.362Z,100671.72
2024-02-05T20:11:41.779Z,100670.75
2024-02-05T20:14:12.291Z,100671.13
2024-02-05T20:16:40.812Z,100675.88
2024-02-05T20:19:09.311Z,100684.72
2024-02-05T20:21:37.539Z,100671.75
2024-02-05T20:24:06.457Z,100678.09
2024-02-05T20:26:35.305Z,100676.94
2024-02-05T20:29:04.424Z,100667.25
2024-02-05T20:31:35.573Z,100668.63
2024-02-05T20:34:04.198Z,100670.78
2024-02-05T20:36:32.398Z,100664.38
2024-02-05T20:39:00.877Z,100668.97
2024-02-05T20:41:29.597Z,100646.19
2024-02-05T20:43:57.859Z,100643.63
2024-02-05T20:46:26.354Z,100656.22
2024-02-05T20:48:56.066Z,100644.38
2024-02-05T20:51:24.434Z,100646.06
2024-02-05T20:53:52.826Z,100637.63
2024-02-05T20:56:24.155Z,100645.75
2024-02-05T20:58:52.392Z,100626.38
2024-02-05T21:01:21.234Z,100627.72
2024-02-05T21:03:49.410Z,100621.25
2024-02-05T21:06:19.156Z,100625.03
2024-02-05T21:08:47.843Z,100630.97
2024-02-05T21:11:16.397Z,100630.44
2024-02-05T21:13:44.914Z,100614.53
2024-02-05T21:16:21.011Z,100625.91
2024-02-05T21:18:51.333Z,100607.75
2024-02-05T21:21:21.126Z,100614.00
2024-02-05T21:23:49.223Z,100616.00
2024-02-05T21:26:17.344Z,100608.38
2024-02-05T21:28:46.589Z,100617.91
2024-02-05T21:31:14.689Z,100611.84
2024-02-05T21:33:43.480Z,100612.56
2024-02-05T21:36:11.652Z,100610.88
2024-02-05T21:38:41.227Z,100608.16
2024-02-05T21:41:09.303Z,100611.00
2024-02-05T21:43:37.263Z,100601.56
2024-02-05T21:46:05.602Z,100602.75
2024-02-05T21:48:33.676Z,100601.91
2024-02-05T21:51:01.877Z,100596.97
2024-02-05T21:53:30.052Z,100597.69
2024-02-05T21:55:59.439Z,100597.69
2024-02-05T21:58:27.444Z,100591.25
2024-02-05T22:00:55.547Z,100593.69
2024-02-05T22:03:23.562Z,100587.38
2024-02-05T22:05:51.645Z,100586.88
2024-02-05T22:08:19.637Z,100580.13
2024-02-05T22:10:47.704Z,100582.34
2024-02-05T22:13:17.801Z,100576.06
2024-02-05T22:15:45.875Z,100575.38
2024-02-05T22:18:14.218Z,100563.19
2024-02-05T22:20:42.361Z,100566.25
2024-02-05T22:23:10.393Z,100570.00
2024-02-05T22:25:38.528Z,100561.19
2024-02-05T22:28:06.789Z,100558.66
2024-02-05T22:30:36.029Z,100569.88
2024-02-05T22:33:04.529Z,100560.53
2024-02-05T22:35:32.710Z,100551.22
2024-02-05T22:38:00.841Z,100531.34
2024-02-05T22:40:28.864Z,100550.34
2024-02-05T22:42:57.878Z,100540.19
2024-02-05T22:45:26.017Z,100550.69
2024-02-05T22:47:57.360Z,100530.06
2024-02-05T22:50:25.824Z,100523.75
2024-02-05T22:52:54.060Z,100531.69
2024-02-05T22:55:21.972Z,100537.81
2024-02-05T22:57:50.446Z,100534.06
2024-02-05T23:00:27.688Z,100534.19
2024-02-05T23:02:58.352Z,100503.06
2024-02-05T23:05:26.955Z,100524.72
2024-02-05T23:07:55.610Z,100522.16
2024-02-05T23:10:24.339Z,100522.50
2024-02-05T23:12:52.466Z,100523.53
2024-02-05T23:15:20.616Z,100520.13
2024-02-05T23:17:48.600Z,100533.84
2024-02-05T23:20:18.292Z,100531.69
2024-02-05T23:22:46.599Z,100532.34
2024-02-05T23:25:15.770Z,100509.34
2024-02-05T23:27:44.091Z,100532.38
2024-02-05T23:30:13.889Z,100524.22
2024-02-05T23:32:42.470Z,100526.25
2024-02-05T23:35:11.071Z,100524.59
2024-02-05T23:37:40.373Z,100516.16
2024-02-05T23:40:09.229Z,100520.75
2024-02-05T23:42:39.586Z,100518.19
2024-02-05T23:45:08.438Z,100514.13
2024-02-05T23:47:36.266Z,100521.38
2024-02-05T23:50:04.435Z,100506.97
2024-02-05T23:52:32.684Z,100521.97
2024-02-05T23:55:02.340Z,100509.59
2024-02-05T23:57:30.272Z,100514.81
2024-02-05T23:59:58.327Z,100509.41
